sensor_id;sensor_type;location;lat;lon;timestamp;pressure;altitude;pressure_sealevel;temperature;humidity
48027;BME280;50714;49.208;5.364;2023-03-25T00:07:09;98727.97;;;9.46;76.24
48027;BME280;50714;49.208;5.364;2023-03-25T00:17:10;98739.66;;;9.33;76.93
48027;BME280;50714;49.208;5.364;2023-03-25T00:27:13;98753.97;;;9.27;77.72
48027;BME280;50714;49.208;5.364;2023-03-25T00:37:16;98754.44;;;9.17;77.71
48027;BME280;50714;49.208;5.364;2023-03-25T00:47:17;98759.00;;;9.10;78.80
48027;BME280;50714;49.208;5.364;2023-03-25T00:57:17;98748.28;;;8.97;79.64
48027;BME280;50714;49.208;5.364;2023-03-25T01:07:18;98753.47;;;8.92;79.49
48027;BME280;50714;49.208;5.364;2023-03-25T01:17:19;98752.44;;;8.86;79.87
48027;BME280;50714;49.208;5.364;2023-03-25T01:27:19;98761.13;;;8.88;80.20
48027;BME280;50714;49.208;5.364;2023-03-25T01:37:20;98760.50;;;8.86;80.36
48027;BME280;50714;49.208;5.364;2023-03-25T01:47:21;98751.81;;;8.91;81.21
48027;BME280;50714;49.208;5.364;2023-03-25T01:57:23;98767.31;;;8.96;80.75
48027;BME280;50714;49.208;5.364;2023-03-25T02:07:28;98758.59;;;9.00;80.80
48027;BME280;50714;49.208;5.364;2023-03-25T02:48:22;98752.44;;;8.80;84.25
48027;BME280;50714;49.208;5.364;2023-03-25T02:58:24;98746.69;;;8.70;83.40
48027;BME280;50714;49.208;5.364;2023-03-25T03:29:16;98753.31;;;8.74;83.64
48027;BME280;50714;49.208;5.364;2023-03-25T03:49:22;98731.38;;;8.64;82.84
48027;BME280;50714;49.208;5.364;2023-03-25T03:59:36;98744.41;;;8.53;83.54
48027;BME280;50714;49.208;5.364;2023-03-25T04:09:59;98755.41;;;8.45;83.79
48027;BME280;50714;49.208;5.364;2023-03-25T04:20:02;98776.28;;;8.43;83.26
48027;BME280;50714;49.208;5.364;2023-03-25T04:30:08;98779.38;;;8.47;84.11
48027;BME280;50714;49.208;5.364;2023-03-25T04:40:08;98778.53;;;8.60;84.69
48027;BME280;50714;49.208;5.364;2023-03-25T04:50:22;98761.59;;;8.72;84.61
48027;BME280;50714;49.208;5.364;2023-03-25T05:00:23;98760.31;;;8.75;84.54
48027;BME280;50714;49.208;5.364;2023-03-25T05:10:25;98757.63;;;8.81;85.04
48027;BME280;50714;49.208;5.364;2023-03-25T05:20:25;98759.25;;;8.96;84.14
48027;BME280;50714;49.208;5.364;2023-03-25T05:30:25;98771.84;;;9.02;84.49
48027;BME280;50714;49.208;5.364;2023-03-25T05:40:31;98760.44;;;9.06;84.12
48027;BME280;50714;49.208;5.364;2023-03-25T05:50:33;98759.00;;;9.04;84.19
48027;BME280;50714;49.208;5.364;2023-03-25T06:00:33;98741.59;;;9.13;84.04
48027;BME280;50714;49.208;5.364;2023-03-25T06:10:33;98756.50;;;9.15;84.49
48027;BME280;50714;49.208;5.364;2023-03-25T06:20:34;98759.41;;;9.14;83.94
48027;BME280;50714;49.208;5.364;2023-03-25T06:30:34;98762.66;;;9.22;84.20
48027;BME280;50714;49.208;5.364;2023-03-25T06:40:36;98768.44;;;9.33;84.12
48027;BME280;50714;49.208;5.364;2023-03-25T06:50:37;98772.09;;;9.45;83.97
48027;BME280;50714;49.208;5.364;2023-03-25T07:00:37;98772.69;;;9.60;83.72
48027;BME280;50714;49.208;5.364;2023-03-25T07:10:38;98769.19;;;9.91;82.06
48027;BME280;50714;49.208;5.364;2023-03-25T07:20:38;98784.31;;;9.92;81.47
48027;BME280;50714;49.208;5.364;2023-03-25T07:30:39;98782.28;;;9.87;81.64
48027;BME280;50714;49.208;5.364;2023-03-25T07:40:39;98780.34;;;9.95;81.45
48027;BME280;50714;49.208;5.364;2023-03-25T07:50:40;98794.00;;;10.00;80.31
48027;BME280;50714;49.208;5.364;2023-03-25T08:00:41;98816.09;;;9.83;82.64
48027;BME280;50714;49.208;5.364;2023-03-25T08:10:42;98832.44;;;9.88;81.92
48027;BME280;50714;49.208;5.364;2023-03-25T08:20:43;98841.16;;;9.84;83.46
48027;BME280;50714;49.208;5.364;2023-03-25T08:30:43;98871.50;;;9.66;84.03
48027;BME280;50714;49.208;5.364;2023-03-25T08:40:43;98882.84;;;10.33;82.91
48027;BME280;50714;49.208;5.364;2023-03-25T08:50:44;98893.59;;;10.39;82.99
48027;BME280;50714;49.208;5.364;2023-03-25T09:00:44;98905.81;;;12.62;74.91
48027;BME280;50714;49.208;5.364;2023-03-25T09:10:45;98899.03;;;12.83;73.04
48027;BME280;50714;49.208;5.364;2023-03-25T09:20:46;98908.38;;;11.98;72.60
48027;BME280;50714;49.208;5.364;2023-03-25T09:30:47;98913.31;;;14.07;71.79
48027;BME280;50714;49.208;5.364;2023-03-25T09:40:47;98935.16;;;15.48;65.93
48027;BME280;50714;49.208;5.364;2023-03-25T09:50:48;98944.13;;;16.69;60.58
48027;BME280;50714;49.208;5.364;2023-03-25T10:01:23;98938.78;;;15.70;50.85
48027;BME280;50714;49.208;5.364;2023-03-25T10:21:54;98944.25;;;18.27;50.14
48027;BME280;50714;49.208;5.364;2023-03-25T10:32:00;98964.13;;;21.60;51.61
48027;BME280;50714;49.208;5.364;2023-03-25T10:42:15;98962.56;;;20.65;42.29
48027;BME280;50714;49.208;5.364;2023-03-25T10:52:19;98974.34;;;19.81;48.03
48027;BME280;50714;49.208;5.364;2023-03-25T11:02:22;98973.69;;;21.33;41.99
48027;BME280;50714;49.208;5.364;2023-03-25T11:12:24;98984.22;;;17.91;48.10
48027;BME280;50714;49.208;5.364;2023-03-25T11:22:27;98988.28;;;16.06;49.02
48027;BME280;50714;49.208;5.364;2023-03-25T11:32:36;98985.25;;;16.46;48.34
48027;BME280;50714;49.208;5.364;2023-03-25T11:42:40;98998.50;;;15.98;49.44
48027;BME280;50714;49.208;5.364;2023-03-25T11:52:43;98983.25;;;15.97;51.41
48027;BME280;50714;49.208;5.364;2023-03-25T12:02:44;98982.53;;;17.21;50.11
48027;BME280;50714;49.208;5.364;2023-03-25T12:12:51;98962.16;;;20.23;46.94
48027;BME280;50714;49.208;5.364;2023-03-25T12:23:09;98967.47;;;19.18;45.34
48027;BME280;50714;49.208;5.364;2023-03-25T12:43:42;98943.94;;;16.32;48.50
48027;BME280;50714;49.208;5.364;2023-03-25T13:14:39;98909.25;;;15.62;48.09
48027;BME280;50714;49.208;5.364;2023-03-25T13:25:07;98917.00;;;15.36;49.06
48027;BME280;50714;49.208;5.364;2023-03-25T13:45:52;98913.34;;;15.09;52.81
48027;BME280;50714;49.208;5.364;2023-03-25T13:55:58;98903.16;;;14.71;54.27
48027;BME280;50714;49.208;5.364;2023-03-25T14:16:10;98894.19;;;14.42;56.51
48027;BME280;50714;49.208;5.364;2023-03-25T14:26:16;98888.13;;;14.80;54.96
48027;BME280;50714;49.208;5.364;2023-03-25T14:36:17;98901.25;;;14.72;54.97
48027;BME280;50714;49.208;5.364;2023-03-25T14:46:34;98886.06;;;14.42;55.43
48027;BME280;50714;49.208;5.364;2023-03-25T14:56:42;98878.22;;;14.17;57.05
48027;BME280;50714;49.208;5.364;2023-03-25T15:06:45;98903.84;;;13.70;56.52
48027;BME280;50714;49.208;5.364;2023-03-25T15:26:48;98924.53;;;12.34;66.98
48027;BME280;50714;49.208;5.364;2023-03-25T15:47:30;98888.28;;;12.65;69.58
48027;BME280;50714;49.208;5.364;2023-03-25T15:57:42;98895.97;;;12.68;71.23
48027;BME280;50714;49.208;5.364;2023-03-25T16:07:43;98909.91;;;12.53;72.56
48027;BME280;50714;49.208;5.364;2023-03-25T16:17:45;98905.41;;;12.17;70.61
48027;BME280;50714;49.208;5.364;2023-03-25T16:27:51;98950.53;;;11.62;70.30
48027;BME280;50714;49.208;5.364;2023-03-25T16:37:58;98972.31;;;10.92;71.96
48027;BME280;50714;49.208;5.364;2023-03-25T16:48:04;98960.19;;;10.77;73.32
48027;BME280;50714;49.208;5.364;2023-03-25T16:58:14;98968.44;;;10.82;74.52
48027;BME280;50714;49.208;5.364;2023-03-25T17:08:16;98990.28;;;10.74;74.81
48027;BME280;50714;49.208;5.364;2023-03-25T17:18:19;98994.88;;;10.73;74.75
48027;BME280;50714;49.208;5.364;2023-03-25T17:38:34;99000.59;;;10.45;76.80
48027;BME280;50714;49.208;5.364;2023-03-25T17:48:35;98995.25;;;10.39;76.49
48027;BME280;50714;49.208;5.364;2023-03-25T17:58:36;99006.25;;;10.37;76.94
48027;BME280;50714;49.208;5.364;2023-03-25T18:08:37;99022.25;;;10.32;76.89
48027;BME280;50714;49.208;5.364;2023-03-25T18:18:37;99037.41;;;10.27;77.04
48027;BME280;50714;49.208;5.364;2023-03-25T18:28:38;99039.47;;;10.38;77.30
48027;BME280;50714;49.208;5.364;2023-03-25T18:38:42;99023.09;;;10.26;78.05
48027;BME280;50714;49.208;5.364;2023-03-25T18:48:45;99022.06;;;10.27;78.12
48027;BME280;50714;49.208;5.364;2023-03-25T18:58:45;99009.03;;;10.11;79.01
48027;BME280;50714;49.208;5.364;2023-03-25T19:08:46;98995.13;;;10.07;79.20
48027;BME280;50714;49.208;5.364;2023-03-25T19:18:46;99011.31;;;10.01;79.98
48027;BME280;50714;49.208;5.364;2023-03-25T19:28:47;98988.94;;;10.00;79.61
48027;BME280;50714;49.208;5.364;2023-03-25T19:38:47;99020.44;;;10.00;79.68
48027;BME280;50714;49.208;5.364;2023-03-25T19:48:48;99002.88;;;9.71;80.70
48027;BME280;50714;49.208;5.364;2023-03-25T19:58:49;99002.47;;;9.74;81.16
48027;BME280;50714;49.208;5.364;2023-03-25T20:08:49;98998.97;;;9.67;80.99
48027;BME280;50714;49.208;5.364;2023-03-25T20:18:50;98990.28;;;9.58;80.89
48027;BME280;50714;49.208;5.364;2023-03-25T20:28:50;98984.69;;;9.40;80.93
48027;BME280;50714;49.208;5.364;2023-03-25T20:38:50;98977.66;;;9.39;80.59
48027;BME280;50714;49.208;5.364;2023-03-25T20:48:51;98965.63;;;9.35;80.44
48027;BME280;50714;49.208;5.364;2023-03-25T20:58:51;98945.75;;;9.22;80.14
48027;BME280;50714;49.208;5.364;2023-03-25T21:08:53;98943.28;;;9.21;79.29
48027;BME280;50714;49.208;5.364;2023-03-25T21:18:53;98946.81;;;9.15;79.18
48027;BME280;50714;49.208;5.364;2023-03-25T21:28:55;98956.97;;;9.19;78.87
48027;BME280;50714;49.208;5.364;2023-03-25T21:38:58;98954.88;;;9.08;78.24
48027;BME280;50714;49.208;5.364;2023-03-25T21:48:59;98947.81;;;9.01;78.78
48027;BME280;50714;49.208;5.364;2023-03-25T21:59:01;98960.25;;;8.95;78.87
48027;BME280;50714;49.208;5.364;2023-03-25T22:09:04;98944.13;;;8.95;79.21
48027;BME280;50714;49.208;5.364;2023-03-25T22:19:05;98946.41;;;9.18;78.46
48027;BME280;50714;49.208;5.364;2023-03-25T22:29:08;98948.84;;;9.33;77.64
48027;BME280;50714;49.208;5.364;2023-03-25T22:39:09;98920.69;;;9.42;77.18
48027;BME280;50714;49.208;5.364;2023-03-25T22:49:11;98934.53;;;9.45;76.82
48027;BME280;50714;49.208;5.364;2023-03-25T22:59:13;98922.34;;;9.43;76.28
48027;BME280;50714;49.208;5.364;2023-03-25T23:09:13;98914.44;;;9.48;76.31
48027;BME280;50714;49.208;5.364;2023-03-25T23:19:34;98902.66;;;9.42;75.89
48027;BME280;50714;49.208;5.364;2023-03-25T23:29:35;98907.03;;;9.10;76.96
48027;BME280;50714;49.208;5.364;2023-03-25T23:39:35;98900.63;;;8.98;77.27
48027;BME280;50714;49.208;5.364;2023-03-25T23:49:36;98887.59;;;8.95;78.17
48027;BME280;50714;49.208;5.364;2023-03-25T23:59:37;98876.59;;;8.77;78.80
